Somerset, Illinois
Current Conditions -  °F | °C
As of 1:59 PM on Thursday 29 Jan 2015 (Local Time) from KMDH Reporting Station
Overcast Overcast  
Wind Chill: 35°   Ceiling: 3000
Heat Index: 42°   Visibility: 10mi
Dew Point: 30°   Wind: 15mph
Humidity: 62%   Direction: 310°NW
Pressure: 30.17"   Gusts: 24mph
Location:  37.776°N, 89.3234°W
Report Text: KMDH 291959Z 31013G21KT 10SM OVC030 06/M01 A3017 RMK AO2 T00561011
Loading
Personal Weather Stations






























Interactive Weather Map New forecast layout! Learn more

10-Day Weather Forecast

Advertisements
Track Severe Weather on mobile